Time;durP1;ratioP1;P1;durP2;ratioP2;P2;SDS_P1;SDS_P2;PMS_P1;PMS_P2;Temp;Humidity;BMP_temperature;BMP_pressure;BME280_temperature;BME280_humidity;BME280_pressure;Samples;Min_cycle;Max_cycle;Signal;HPM_P1;HPM_P2
2023/12/08 00:02:23;;;;;;;12.05;6.97;;;;;;;;;;5047500;28;20036;-61
2023/12/08 00:04:48;;;;;;;12.15;6.60;;;;;;;;;;5046072;28;20037;-61
2023/12/08 00:07:13;;;;;;;11.82;6.50;;;;;;;;;;5047831;28;20052;-61
2023/12/08 00:09:39;;;;;;;11.68;6.65;;;;;;;;;;5052892;28;20523;-61
2023/12/08 00:12:05;;;;;;;14.02;6.95;;;;;;;;;;5045651;28;20061;-61
2023/12/08 00:14:30;;;;;;;11.20;6.70;;;;;;;;;;5050224;28;20090;-61
2023/12/08 00:16:55;;;;;;;11.90;6.78;;;;;;;;;;5052899;28;20033;-61
2023/12/08 00:19:21;;;;;;;13.85;6.60;;;;;;;;;;5052492;28;20651;-61
2023/12/08 00:21:46;;;;;;;11.10;6.40;;;;;;;;;;5039105;28;20029;-61
2023/12/08 00:24:11;;;;;;;12.48;6.50;;;;;;;;;;5041032;28;20068;-61
2023/12/08 00:26:37;;;;;;;12.13;6.40;;;;;;;;;;5014310;28;20033;-61
2023/12/08 00:29:04;;;;;;;15.25;6.30;;;;;;;;;;5044265;28;20036;-61
2023/12/08 00:31:29;;;;;;;10.45;5.78;;;;;;;;;;5051756;28;20048;-62
2023/12/08 00:33:56;;;;;;;11.10;6.03;;;;;;;;;;5045817;28;20033;-61
2023/12/08 00:36:22;;;;;;;10.68;6.25;;;;;;;;;;5039026;28;20140;-61
2023/12/08 00:38:48;;;;;;;11.10;6.03;;;;;;;;;;5041867;28;20029;-62
2023/12/08 00:41:13;;;;;;;11.23;6.10;;;;;;;;;;5044982;28;20413;-62
2023/12/08 00:43:39;;;;;;;11.05;6.30;;;;;;;;;;5038821;28;20040;-61
2023/12/08 00:46:04;;;;;;;10.60;5.97;;;;;;;;;;5051847;28;20433;-61
2023/12/08 00:48:30;;;;;;;11.57;6.03;;;;;;;;;;5053233;28;20456;-61
2023/12/08 00:50:56;;;;;;;10.73;5.70;;;;;;;;;;5052338;28;20064;-61
2023/12/08 00:53:21;;;;;;;9.98;5.75;;;;;;;;;;5041539;28;20087;-61
2023/12/08 00:55:46;;;;;;;10.55;5.88;;;;;;;;;;5043228;28;20102;-61
2023/12/08 00:58:14;;;;;;;10.13;5.97;;;;;;;;;;5050783;28;20056;-61
2023/12/08 01:00:40;;;;;;;11.52;5.97;;;;;;;;;;5039636;28;20041;-62
2023/12/08 01:03:05;;;;;;;12.38;5.68;;;;;;;;;;5046046;28;20021;-61
2023/12/08 01:05:31;;;;;;;10.82;6.15;;;;;;;;;;5053135;28;20158;-61
2023/12/08 01:07:56;;;;;;;11.02;5.70;;;;;;;;;;5035321;28;20033;-62
2023/12/08 01:10:21;;;;;;;10.45;6.00;;;;;;;;;;5045820;28;20372;-61
2023/12/08 01:12:47;;;;;;;8.70;5.35;;;;;;;;;;5043572;28;20036;-61
2023/12/08 01:15:13;;;;;;;9.82;5.60;;;;;;;;;;5048346;28;20033;-61
2023/12/08 01:17:38;;;;;;;10.98;5.63;;;;;;;;;;5053269;28;20052;-61
2023/12/08 01:20:05;;;;;;;10.27;5.75;;;;;;;;;;5045411;28;20045;-62
2023/12/08 01:22:30;;;;;;;13.60;6.05;;;;;;;;;;5052382;28;20162;-63
2023/12/08 01:24:56;;;;;;;10.27;5.68;;;;;;;;;;5057672;28;20124;-62
2023/12/08 01:27:22;;;;;;;10.55;5.50;;;;;;;;;;5040810;28;20038;-61
2023/12/08 01:29:47;;;;;;;10.55;5.60;;;;;;;;;;5043931;28;20486;-62
2023/12/08 01:32:12;;;;;;;12.15;5.30;;;;;;;;;;5047449;28;20074;-61
2023/12/08 01:34:38;;;;;;;9.82;5.03;;;;;;;;;;5048193;28;20039;-62
2023/12/08 01:37:03;;;;;;;11.52;5.30;;;;;;;;;;5037562;28;20029;-62
2023/12/08 01:39:29;;;;;;;9.82;5.50;;;;;;;;;;5047471;28;20040;-61
2023/12/08 01:41:54;;;;;;;9.18;4.72;;;;;;;;;;5048895;28;20112;-62
2023/12/08 01:44:20;;;;;;;9.52;5.30;;;;;;;;;;5044284;28;20475;-62
2023/12/08 01:46:46;;;;;;;9.50;5.07;;;;;;;;;;5052227;28;20176;-63
2023/12/08 01:49:12;;;;;;;9.68;4.93;;;;;;;;;;5042249;28;20033;-61
2023/12/08 01:51:38;;;;;;;9.27;5.25;;;;;;;;;;5050186;28;20043;-61
2023/12/08 01:54:06;;;;;;;10.10;5.40;;;;;;;;;;5044545;28;21201;-62
2023/12/08 01:56:31;;;;;;;10.13;5.57;;;;;;;;;;5027000;28;20118;-61
2023/12/08 01:58:57;;;;;;;12.25;6.57;;;;;;;;;;5012991;28;20428;-61
2023/12/08 02:01:22;;;;;;;9.07;5.00;;;;;;;;;;5032143;28;20037;-61
2023/12/08 02:03:51;;;;;;;9.55;5.38;;;;;;;;;;5049136;28;20131;-61
2023/12/08 02:06:20;;;;;;;10.45;5.50;;;;;;;;;;5039731;28;20133;-62
2023/12/08 02:08:48;;;;;;;10.13;5.05;;;;;;;;;;5032130;28;20029;-61
2023/12/08 02:11:14;;;;;;;10.60;5.85;;;;;;;;;;5032413;28;20041;-61
2023/12/08 02:13:43;;;;;;;10.98;5.22;;;;;;;;;;5040509;28;20051;-61
2023/12/08 02:16:16;;;;;;;11.45;5.47;;;;;;;;;;5047962;28;20024;-61
2023/12/08 02:18:42;;;;;;;8.45;5.05;;;;;;;;;;5051923;28;20063;-61
2023/12/08 02:21:08;;;;;;;10.60;5.43;;;;;;;;;;5048170;28;20076;-62
2023/12/08 02:23:35;;;;;;;9.80;5.30;;;;;;;;;;5049836;28;20036;-62
2023/12/08 02:26:02;;;;;;;9.18;5.47;;;;;;;;;;5049289;28;20086;-61
2023/12/08 02:28:27;;;;;;;10.52;5.90;;;;;;;;;;5044915;28;20051;-61
2023/12/08 02:30:54;;;;;;;9.40;5.25;;;;;;;;;;5040475;28;20025;-61
2023/12/08 02:33:27;;;;;;;12.38;5.60;;;;;;;;;;5039834;28;20090;-61
2023/12/08 02:35:54;;;;;;;9.10;5.30;;;;;;;;;;5035109;28;20032;-61
2023/12/08 02:38:21;;;;;;;10.18;5.40;;;;;;;;;;5049350;28;20048;-61
2023/12/08 02:40:46;;;;;;;11.63;5.82;;;;;;;;;;5036017;28;20033;-61
2023/12/08 02:43:12;;;;;;;10.13;5.45;;;;;;;;;;5043405;28;20039;-61
2023/12/08 02:45:37;;;;;;;8.73;5.15;;;;;;;;;;5049131;28;20028;-61
2023/12/08 02:48:03;;;;;;;8.52;5.05;;;;;;;;;;5044524;28;20040;-62
2023/12/08 02:50:28;;;;;;;8.85;4.90;;;;;;;;;;5047124;28;20071;-61
2023/12/08 02:52:54;;;;;;;8.43;5.05;;;;;;;;;;5038492;28;20177;-62
2023/12/08 02:55:19;;;;;;;10.10;5.15;;;;;;;;;;5042511;28;20033;-62
2023/12/08 02:57:44;;;;;;;8.48;5.13;;;;;;;;;;5030309;28;20109;-61
2023/12/08 03:00:10;;;;;;;9.68;5.30;;;;;;;;;;5040908;28;20390;-61
2023/12/08 03:02:36;;;;;;;9.88;5.40;;;;;;;;;;5048378;28;20035;-61
2023/12/08 03:05:02;;;;;;;10.73;5.68;;;;;;;;;;5032128;28;20117;-62
2023/12/08 03:07:28;;;;;;;9.23;5.75;;;;;;;;;;5036953;28;20115;-62
2023/12/08 03:09:53;;;;;;;9.48;5.35;;;;;;;;;;5042040;28;20651;-61
2023/12/08 03:12:18;;;;;;;8.73;5.40;;;;;;;;;;5022795;28;20041;-62
2023/12/08 03:14:44;;;;;;;10.63;5.97;;;;;;;;;;5015819;28;20072;-63
2023/12/08 03:17:09;;;;;;;9.20;5.43;;;;;;;;;;5011503;28;20026;-62
2023/12/08 03:19:34;;;;;;;11.95;5.05;;;;;;;;;;5010476;28;20050;-62
2023/12/08 03:22:00;;;;;;;8.07;5.07;;;;;;;;;;5011646;28;20029;-62
2023/12/08 03:24:26;;;;;;;9.70;5.20;;;;;;;;;;5010877;28;20069;-62
2023/12/08 03:26:51;;;;;;;10.50;4.95;;;;;;;;;;5011980;28;20054;-63
2023/12/08 03:29:17;;;;;;;9.05;5.18;;;;;;;;;;5032466;28;20036;-62
2023/12/08 03:31:43;;;;;;;10.82;5.28;;;;;;;;;;5049651;28;20104;-63
2023/12/08 03:34:08;;;;;;;8.80;5.38;;;;;;;;;;5051071;28;20032;-65
2023/12/08 03:36:34;;;;;;;10.20;5.57;;;;;;;;;;5043109;28;20025;-66
2023/12/08 03:38:59;;;;;;;12.75;5.82;;;;;;;;;;5030762;28;20086;-64
2023/12/08 03:41:25;;;;;;;9.85;5.88;;;;;;;;;;5047274;28;20508;-62
2023/12/08 03:43:51;;;;;;;11.68;6.35;;;;;;;;;;5045567;28;20063;-62
2023/12/08 03:46:16;;;;;;;12.18;6.45;;;;;;;;;;5047546;28;20045;-61
2023/12/08 03:48:41;;;;;;;11.15;6.38;;;;;;;;;;5047288;28;20072;-61
2023/12/08 03:51:07;;;;;;;11.25;6.57;;;;;;;;;;5047855;28;20048;-61
2023/12/08 03:53:33;;;;;;;14.07;6.93;;;;;;;;;;5038021;28;20079;-62
2023/12/08 03:55:58;;;;;;;14.23;7.28;;;;;;;;;;5056678;28;20033;-62
2023/12/08 03:58:26;;;;;;;10.68;5.93;;;;;;;;;;5023880;28;20117;-62
2023/12/08 04:00:51;;;;;;;11.70;6.43;;;;;;;;;;5029632;28;20030;-62
2023/12/08 04:03:16;;;;;;;14.45;7.07;;;;;;;;;;5027417;28;20074;-61
2023/12/08 04:05:42;;;;;;;12.93;7.13;;;;;;;;;;5050084;28;20210;-63
2023/12/08 04:08:07;;;;;;;15.23;7.60;;;;;;;;;;5050912;28;20120;-63
2023/12/08 04:10:32;;;;;;;13.93;7.25;;;;;;;;;;5051031;28;20025;-63
2023/12/08 04:12:58;;;;;;;13.68;7.78;;;;;;;;;;5043158;28;20039;-64
2023/12/08 04:15:23;;;;;;;14.57;7.40;;;;;;;;;;5049401;28;20028;-63
2023/12/08 04:17:49;;;;;;;14.82;7.78;;;;;;;;;;5049914;28;20104;-63
2023/12/08 04:20:15;;;;;;;14.52;7.82;;;;;;;;;;5029601;28;20066;-65
2023/12/08 04:22:40;;;;;;;16.30;8.40;;;;;;;;;;5037666;28;20034;-62
2023/12/08 04:25:06;;;;;;;15.45;8.35;;;;;;;;;;5043335;28;20037;-63
2023/12/08 04:27:32;;;;;;;16.60;8.63;;;;;;;;;;5028642;28;20057;-62
2023/12/08 04:29:57;;;;;;;18.63;9.23;;;;;;;;;;5022531;28;20068;-63
2023/12/08 04:32:23;;;;;;;16.77;8.23;;;;;;;;;;5027890;28;20025;-62
2023/12/08 04:34:48;;;;;;;21.00;9.57;;;;;;;;;;5018747;28;20120;-62
2023/12/08 04:37:14;;;;;;;21.30;9.25;;;;;;;;;;5029964;28;20430;-61
2023/12/08 04:39:39;;;;;;;16.45;8.50;;;;;;;;;;5019410;28;20025;-62
2023/12/08 04:42:05;;;;;;;17.40;9.13;;;;;;;;;;5033877;28;20033;-62
2023/12/08 04:44:30;;;;;;;16.38;8.90;;;;;;;;;;5032953;28;20029;-62
2023/12/08 04:46:55;;;;;;;22.55;10.73;;;;;;;;;;5033394;28;20334;-62
2023/12/08 04:49:21;;;;;;;17.02;9.00;;;;;;;;;;5033054;28;20037;-61
2023/12/08 04:51:46;;;;;;;17.27;8.95;;;;;;;;;;5031894;28;20034;-62
2023/12/08 04:54:11;;;;;;;19.63;9.18;;;;;;;;;;5033143;28;20392;-63
2023/12/08 04:56:37;;;;;;;20.10;8.68;;;;;;;;;;5032562;28;20032;-62
2023/12/08 04:59:02;;;;;;;17.95;9.00;;;;;;;;;;5033437;28;20033;-63
2023/12/08 05:01:27;;;;;;;18.25;9.23;;;;;;;;;;5033004;28;20034;-61
2023/12/08 05:03:53;;;;;;;15.68;9.05;;;;;;;;;;5033647;28;20048;-62
2023/12/08 05:06:22;;;;;;;20.30;8.82;;;;;;;;;;5023904;28;20138;-60
2023/12/08 05:08:47;;;;;;;17.25;8.45;;;;;;;;;;5013682;28;20455;-62
2023/12/08 05:11:13;;;;;;;17.13;8.90;;;;;;;;;;5013737;28;20116;-62
2023/12/08 05:13:38;;;;;;;17.98;9.35;;;;;;;;;;5012735;28;20481;-62
2023/12/08 05:16:04;;;;;;;19.00;9.43;;;;;;;;;;5013528;28;20472;-63
2023/12/08 05:18:29;;;;;;;17.42;9.30;;;;;;;;;;5012846;28;20112;-61
2023/12/08 05:20:55;;;;;;;20.23;9.70;;;;;;;;;;5021063;28;20407;-62
2023/12/08 05:23:20;;;;;;;22.95;10.43;;;;;;;;;;5032924;28;20037;-60
2023/12/08 05:25:45;;;;;;;18.63;9.32;;;;;;;;;;5031501;28;20041;-62
2023/12/08 05:28:11;;;;;;;23.88;9.88;;;;;;;;;;5018122;28;20042;-62
2023/12/08 05:30:36;;;;;;;19.90;9.88;;;;;;;;;;5012575;28;20064;-62
2023/12/08 05:33:02;;;;;;;20.48;10.25;;;;;;;;;;5013352;28;20113;-62
2023/12/08 05:35:28;;;;;;;23.88;11.07;;;;;;;;;;5012257;28;20380;-60
2023/12/08 05:37:53;;;;;;;24.55;11.00;;;;;;;;;;5012958;28;20392;-62
2023/12/08 05:40:18;;;;;;;21.05;10.68;;;;;;;;;;5016684;28;20045;-62
2023/12/08 05:42:44;;;;;;;21.20;9.93;;;;;;;;;;5012333;28;20072;-62
2023/12/08 05:45:10;;;;;;;19.13;10.30;;;;;;;;;;5012851;28;20041;-62
2023/12/08 05:47:35;;;;;;;21.45;11.10;;;;;;;;;;5012112;28;20365;-63
2023/12/08 05:50:01;;;;;;;25.58;11.45;;;;;;;;;;5013060;28;20026;-64
2023/12/08 05:52:26;;;;;;;24.52;11.02;;;;;;;;;;5012236;28;20407;-62
2023/12/08 05:54:51;;;;;;;22.10;10.75;;;;;;;;;;5013117;28;20029;-63
2023/12/08 05:57:17;;;;;;;22.88;10.38;;;;;;;;;;5012845;28;20431;-62
2023/12/08 05:59:42;;;;;;;22.23;10.88;;;;;;;;;;5027172;28;20032;-62
2023/12/08 06:02:08;;;;;;;22.20;10.88;;;;;;;;;;5012869;28;20504;-62
2023/12/08 06:04:33;;;;;;;24.42;11.00;;;;;;;;;;5011989;28;20056;-62
2023/12/08 06:06:58;;;;;;;22.48;11.40;;;;;;;;;;5028745;28;20038;-63
2023/12/08 06:09:24;;;;;;;22.13;10.60;;;;;;;;;;5032000;28;20479;-60
2023/12/08 06:11:50;;;;;;;25.00;11.32;;;;;;;;;;5031813;28;20036;-63
2023/12/08 06:14:15;;;;;;;22.38;11.13;;;;;;;;;;5032178;28;20033;-62
2023/12/08 06:16:41;;;;;;;20.23;10.65;;;;;;;;;;5030863;28;20028;-61
2023/12/08 06:19:06;;;;;;;23.02;11.20;;;;;;;;;;5032005;28;20029;-62
2023/12/08 06:21:32;;;;;;;21.45;10.98;;;;;;;;;;5015827;28;20488;-61
2023/12/08 06:23:58;;;;;;;23.00;11.05;;;;;;;;;;5012642;28;20496;-62
2023/12/08 06:26:24;;;;;;;20.38;10.52;;;;;;;;;;5011994;28;20105;-60
2023/12/08 06:28:49;;;;;;;22.98;12.07;;;;;;;;;;5011890;28;20239;-61
2023/12/08 06:31:15;;;;;;;25.00;11.60;;;;;;;;;;5012361;28;20030;-61
2023/12/08 06:33:40;;;;;;;24.20;11.18;;;;;;;;;;5010051;28;20040;-61
2023/12/08 06:36:06;;;;;;;24.02;11.70;;;;;;;;;;5025389;28;20108;-61
2023/12/08 06:38:33;;;;;;;22.33;11.15;;;;;;;;;;5030998;28;20120;-60
2023/12/08 06:40:58;;;;;;;27.67;12.13;;;;;;;;;;5031819;28;20113;-61
2023/12/08 06:43:24;;;;;;;25.00;12.15;;;;;;;;;;5031597;28;20116;-58
2023/12/08 06:45:49;;;;;;;22.73;11.77;;;;;;;;;;5030891;28;20030;-60
2023/12/08 06:48:15;;;;;;;24.90;11.80;;;;;;;;;;5031787;28;20434;-61
2023/12/08 06:50:40;;;;;;;22.65;11.60;;;;;;;;;;5028957;28;20040;-60
2023/12/08 06:53:06;;;;;;;22.33;11.73;;;;;;;;;;5031486;28;20380;-61
2023/12/08 06:55:32;;;;;;;22.45;11.75;;;;;;;;;;5030883;28;20491;-61
2023/12/08 06:57:57;;;;;;;26.15;11.88;;;;;;;;;;5031561;28;20033;-61
2023/12/08 07:00:22;;;;;;;23.20;11.70;;;;;;;;;;5031431;28;20025;-61
2023/12/08 07:02:48;;;;;;;24.70;11.75;;;;;;;;;;5030786;28;20026;-61
2023/12/08 07:05:19;;;;;;;22.50;11.30;;;;;;;;;;5020383;28;20049;-62
2023/12/08 07:07:44;;;;;;;;;;;;;;;;;;5011307;28;20030;-61
2023/12/08 07:10:10;;;;;;;19.48;10.82;;;;;;;;;;5011783;28;19919;-61
2023/12/08 07:12:35;;;;;;;23.15;11.77;;;;;;;;;;5010953;28;20385;-61
2023/12/08 07:15:00;;;;;;;25.15;11.98;;;;;;;;;;5011722;28;20034;-61
2023/12/08 07:17:26;;;;;;;24.88;11.27;;;;;;;;;;5011166;28;20026;-59
2023/12/08 07:19:51;;;;;;;23.45;11.75;;;;;;;;;;5011258;28;20046;-61
2023/12/08 07:22:17;;;;;;;21.13;11.65;;;;;;;;;;5011725;28;20022;-61
2023/12/08 07:24:42;;;;;;;23.50;12.07;;;;;;;;;;5010809;28;20072;-61
2023/12/08 07:27:08;;;;;;;24.83;12.10;;;;;;;;;;5011653;28;20404;-61
2023/12/08 07:29:33;;;;;;;24.95;12.18;;;;;;;;;;5013814;28;20045;-61
2023/12/08 07:31:59;;;;;;;24.25;12.38;;;;;;;;;;5015975;28;20441;-61
2023/12/08 07:34:24;;;;;;;22.88;12.70;;;;;;;;;;5023370;28;20029;-61
2023/12/08 07:36:50;;;;;;;24.20;12.50;;;;;;;;;;5034285;28;20580;-61
2023/12/08 07:39:15;;;;;;;23.73;12.02;;;;;;;;;;5035218;28;20029;-62
2023/12/08 07:41:43;;;;;;;23.45;12.00;;;;;;;;;;5034182;28;20035;-61
2023/12/08 07:44:08;;;;;;;26.80;11.55;;;;;;;;;;5035169;28;20034;-61
2023/12/08 07:46:33;;;;;;;22.98;12.70;;;;;;;;;;5034129;28;20036;-60
2023/12/08 07:48:59;;;;;;;23.67;12.27;;;;;;;;;;5030417;28;20498;-61
2023/12/08 07:51:24;;;;;;;25.15;12.38;;;;;;;;;;5034908;28;20025;-61
2023/12/08 07:53:49;;;;;;;25.52;12.85;;;;;;;;;;5034107;28;20064;-61
2023/12/08 07:56:15;;;;;;;23.67;12.55;;;;;;;;;;5034872;28;20033;-61
2023/12/08 07:58:40;;;;;;;27.80;12.80;;;;;;;;;;5034054;28;20031;-61
2023/12/08 08:01:06;;;;;;;24.48;13.48;;;;;;;;;;5034900;28;20036;-61
2023/12/08 08:03:31;;;;;;;25.92;13.45;;;;;;;;;;5028881;28;20034;-60
2023/12/08 08:05:57;;;;;;;25.80;13.93;;;;;;;;;;5014775;28;20102;-62
2023/12/08 08:08:22;;;;;;;25.73;12.98;;;;;;;;;;5014602;28;20044;-62
2023/12/08 08:10:47;;;;;;;29.02;14.07;;;;;;;;;;5014134;28;20033;-62
2023/12/08 08:13:14;;;;;;;29.30;14.68;;;;;;;;;;5015148;28;20038;-62
2023/12/08 08:15:39;;;;;;;29.90;13.93;;;;;;;;;;5028882;28;20040;-62
2023/12/08 08:18:05;;;;;;;24.90;13.57;;;;;;;;;;5014282;28;20021;-61
2023/12/08 08:20:30;;;;;;;27.50;13.70;;;;;;;;;;5013956;28;20049;-60
2023/12/08 08:22:55;;;;;;;27.00;13.95;;;;;;;;;;5014053;28;20038;-62
2023/12/08 08:25:21;;;;;;;25.98;13.52;;;;;;;;;;5014585;28;20044;-61
2023/12/08 08:27:48;;;;;;;30.15;14.10;;;;;;;;;;5013973;28;20174;-63
2023/12/08 08:30:14;;;;;;;28.48;14.23;;;;;;;;;;5013140;28;20025;-62
2023/12/08 08:32:39;;;;;;;29.55;15.00;;;;;;;;;;5013422;28;20477;-62
2023/12/08 08:35:06;;;;;;;26.30;14.00;;;;;;;;;;5026680;28;20116;-62
2023/12/08 08:37:31;;;;;;;29.10;14.68;;;;;;;;;;5013916;28;20495;-60
2023/12/08 08:39:57;;;;;;;27.38;13.93;;;;;;;;;;5013526;28;20057;-62
2023/12/08 08:42:22;;;;;;;27.95;14.60;;;;;;;;;;5014230;28;20369;-62
2023/12/08 08:44:48;;;;;;;26.00;13.45;;;;;;;;;;5013264;28;20037;-62
2023/12/08 08:47:13;;;;;;;31.65;13.85;;;;;;;;;;5014033;28;20080;-62
2023/12/08 08:49:39;;;;;;;28.33;13.90;;;;;;;;;;5027722;28;20461;-61
2023/12/08 08:52:04;;;;;;;26.42;13.93;;;;;;;;;;5034047;28;20037;-62
2023/12/08 08:54:29;;;;;;;29.73;14.00;;;;;;;;;;5033579;28;20037;-62
2023/12/08 08:56:55;;;;;;;28.35;14.23;;;;;;;;;;5033092;28;20025;-62
2023/12/08 08:59:20;;;;;;;29.27;14.55;;;;;;;;;;5033649;28;20360;-62
2023/12/08 09:01:46;;;;;;;26.33;13.80;;;;;;;;;;5032373;28;20029;-64
2023/12/08 09:04:11;;;;;;;26.40;13.00;;;;;;;;;;5019120;28;20444;-63
2023/12/08 09:06:36;;;;;;;26.10;13.57;;;;;;;;;;5012635;28;20432;-60
2023/12/08 09:09:04;;;;;;;30.20;14.40;;;;;;;;;;5013333;28;20424;-64
2023/12/08 09:11:29;;;;;;;25.80;14.20;;;;;;;;;;5013276;28;20045;-63
2023/12/08 09:13:54;;;;;;;26.90;14.27;;;;;;;;;;5012359;28;20033;-62
2023/12/08 09:16:20;;;;;;;27.85;14.50;;;;;;;;;;5013328;28;20460;-63
2023/12/08 09:18:45;;;;;;;27.33;13.82;;;;;;;;;;5012744;28;20387;-61
2023/12/08 09:21:11;;;;;;;28.48;14.38;;;;;;;;;;5013429;28;20042;-62
2023/12/08 09:23:36;;;;;;;27.50;14.10;;;;;;;;;;5012487;28;20132;-61
2023/12/08 09:26:01;;;;;;;31.38;14.85;;;;;;;;;;5013055;28;20447;-62
2023/12/08 09:28:27;;;;;;;28.40;14.45;;;;;;;;;;5012990;28;20449;-62
2023/12/08 09:30:52;;;;;;;33.50;15.50;;;;;;;;;;5012430;28;20288;-63
2023/12/08 09:33:18;;;;;;;26.70;14.77;;;;;;;;;;5023756;28;20072;-63
2023/12/08 09:35:43;;;;;;;32.35;15.40;;;;;;;;;;5032051;28;20029;-62
2023/12/08 09:38:08;;;;;;;29.20;14.60;;;;;;;;;;5032491;28;20044;-63
2023/12/08 09:40:37;;;;;;;30.67;14.93;;;;;;;;;;5032743;28;20025;-61
2023/12/08 09:43:21;;;;;;;27.25;14.20;;;;;;;;;;5032297;28;20108;-63
2023/12/08 09:45:47;;;;;;;26.67;14.05;;;;;;;;;;5031872;28;20036;-62
2023/12/08 09:48:13;;;;;;;26.15;14.25;;;;;;;;;;5032545;28;20037;-62
2023/12/08 09:50:40;;;;;;;27.63;14.65;;;;;;;;;;5031138;28;20034;-61
2023/12/08 09:53:08;;;;;;;26.48;13.80;;;;;;;;;;5032508;28;20029;-61
2023/12/08 09:55:34;;;;;;;27.30;14.73;;;;;;;;;;5032135;28;20022;-61
2023/12/08 09:58:02;;;;;;;29.67;14.88;;;;;;;;;;5030138;28;20037;-62
2023/12/08 10:00:30;;;;;;;28.02;15.48;;;;;;;;;;5032402;28;20494;-61
2023/12/08 10:02:55;;;;;;;31.10;15.57;;;;;;;;;;5019488;28;20041;-62
2023/12/08 10:05:21;;;;;;;37.22;17.48;;;;;;;;;;5012642;28;20041;-62
2023/12/08 10:07:49;;;;;;;36.72;19.98;;;;;;;;;;5011631;28;20384;-62
2023/12/08 10:10:14;;;;;;;31.08;15.35;;;;;;;;;;5012462;28;20571;-62
2023/12/08 10:12:40;;;;;;;22.13;11.20;;;;;;;;;;5011564;28;20124;-60
2023/12/08 10:15:11;;;;;;;28.85;14.27;;;;;;;;;;5012301;28;20033;-61
2023/12/08 10:17:50;;;;;;;32.70;15.13;;;;;;;;;;5043815;28;20056;-60
2023/12/08 10:20:17;;;;;;;26.60;13.43;;;;;;;;;;5011826;28;20518;-62
2023/12/08 10:22:45;;;;;;;30.23;14.77;;;;;;;;;;5011340;28;20026;-61
2023/12/08 10:25:10;;;;;;;29.40;13.52;;;;;;;;;;5012169;28;20033;-61
2023/12/08 10:27:36;;;;;;;31.42;14.73;;;;;;;;;;5011909;28;20044;-61
2023/12/08 10:30:03;;;;;;;28.00;14.35;;;;;;;;;;5011270;28;20025;-61
2023/12/08 10:32:28;;;;;;;29.25;13.88;;;;;;;;;;5023584;28;20400;-62
2023/12/08 10:34:56;;;;;;;29.15;14.40;;;;;;;;;;5030930;28;20036;-61
2023/12/08 10:37:22;;;;;;;29.17;15.50;;;;;;;;;;5031758;28;20029;-61
2023/12/08 10:39:48;;;;;;;33.50;15.20;;;;;;;;;;5030970;28;20112;-60
2023/12/08 10:42:13;;;;;;;33.70;15.63;;;;;;;;;;5031536;28;20079;-61
2023/12/08 10:44:39;;;;;;;29.23;14.13;;;;;;;;;;5031179;28;20033;-59
2023/12/08 10:47:05;;;;;;;26.60;13.70;;;;;;;;;;5020130;28;20033;-62
2023/12/08 10:49:31;;;;;;;28.73;13.65;;;;;;;;;;5026160;28;20037;-62
2023/12/08 10:51:58;;;;;;;29.35;14.25;;;;;;;;;;5030662;28;20033;-62
2023/12/08 10:54:25;;;;;;;31.42;14.27;;;;;;;;;;5031514;28;20448;-62
2023/12/08 10:56:50;;;;;;;31.15;13.95;;;;;;;;;;5029390;28;20034;-62
2023/12/08 10:59:24;;;;;;;25.15;13.43;;;;;;;;;;5031563;28;20456;-61
2023/12/08 11:01:52;;;;;;;28.33;13.27;;;;;;;;;;5020032;28;20034;-60
2023/12/08 11:04:21;;;;;;;26.35;12.63;;;;;;;;;;5011866;28;20077;-61
2023/12/08 11:06:52;;;;;;;26.63;13.32;;;;;;;;;;5011100;28;20038;-61
2023/12/08 11:09:21;;;;;;;23.38;12.40;;;;;;;;;;5012342;28;20061;-61
2023/12/08 11:11:53;;;;;;;24.23;12.65;;;;;;;;;;5018418;28;20042;-60
2023/12/08 11:14:36;;;;;;;26.13;13.05;;;;;;;;;;5012047;28;20056;-61
2023/12/08 11:17:07;;;;;;;25.90;13.32;;;;;;;;;;5025903;28;20214;-61
2023/12/08 11:19:34;;;;;;;24.27;12.13;;;;;;;;;;5011328;28;20057;-62
2023/12/08 11:22:00;;;;;;;25.45;12.38;;;;;;;;;;5010940;28;20025;-61
2023/12/08 11:24:27;;;;;;;25.70;12.73;;;;;;;;;;5011495;28;20042;-62
2023/12/08 11:27:21;;;;;;;24.15;12.52;;;;;;;;;;5010844;28;20030;-62
2023/12/08 11:29:53;;;;;;;26.80;12.85;;;;;;;;;;5010810;28;20050;-62
2023/12/08 11:32:29;;;;;;;28.55;13.15;;;;;;;;;;5011621;28;20034;-62
2023/12/08 11:35:02;;;;;;;28.67;14.27;;;;;;;;;;5010805;28;20022;-62
2023/12/08 11:37:31;;;;;;;29.98;13.73;;;;;;;;;;5011691;28;20034;-62
2023/12/08 11:40:07;;;;;;;27.98;13.70;;;;;;;;;;5010387;28;20062;-62
2023/12/08 11:42:33;;;;;;;31.58;12.98;;;;;;;;;;5016274;28;20132;-62
2023/12/08 11:44:59;;;;;;;27.92;13.82;;;;;;;;;;5029763;28;20476;-61
2023/12/08 11:47:26;;;;;;;25.63;13.10;;;;;;;;;;5029850;28;20040;-62
2023/12/08 11:49:53;;;;;;;26.73;13.20;;;;;;;;;;5030228;28;20099;-64
2023/12/08 11:52:19;;;;;;;25.98;13.35;;;;;;;;;;5031158;28;20120;-63
2023/12/08 11:55:01;;;;;;;29.13;12.88;;;;;;;;;;5030640;28;20463;-63
2023/12/08 11:57:27;;;;;;;27.90;13.85;;;;;;;;;;5029752;28;20038;-64
2023/12/08 11:59:56;;;;;;;31.17;13.13;;;;;;;;;;5029494;28;20494;-63
2023/12/08 12:02:22;;;;;;;28.60;13.70;;;;;;;;;;5031009;28;20483;-63
2023/12/08 12:04:49;;;;;;;25.55;12.98;;;;;;;;;;5030251;28;20057;-63
2023/12/08 12:07:20;;;;;;;29.15;14.13;;;;;;;;;;5031129;28;20124;-63
2023/12/08 12:09:49;;;;;;;33.83;14.35;;;;;;;;;;5030352;28;20037;-60
2023/12/08 12:12:24;;;;;;;31.52;14.52;;;;;;;;;;5028559;28;20036;-64
2023/12/08 12:14:54;;;;;;;33.53;14.52;;;;;;;;;;5012006;28;20111;-63
2023/12/08 12:17:20;;;;;;;30.67;14.30;;;;;;;;;;5014989;28;20033;-64
2023/12/08 12:19:47;;;;;;;35.53;14.85;;;;;;;;;;5013817;28;20069;-60
2023/12/08 12:22:14;;;;;;;30.70;14.63;;;;;;;;;;5014620;28;20093;-62
2023/12/08 12:24:40;;;;;;;32.20;15.05;;;;;;;;;;5014585;28;20420;-62
2023/12/08 12:27:05;;;;;;;31.45;15.18;;;;;;;;;;5015766;28;20162;-65
2023/12/08 12:29:31;;;;;;;33.13;15.00;;;;;;;;;;5034151;28;20462;-63
2023/12/08 12:31:56;;;;;;;40.30;16.20;;;;;;;;;;5033430;28;20029;-61
2023/12/08 12:34:22;;;;;;;36.60;15.90;;;;;;;;;;5032813;28;20083;-62
2023/12/08 12:36:47;;;;;;;41.50;16.67;;;;;;;;;;5033612;28;20357;-59
2023/12/08 12:39:12;;;;;;;38.83;15.40;;;;;;;;;;5033507;28;20021;-62
2023/12/08 12:41:38;;;;;;;41.85;16.63;;;;;;;;;;5033049;28;20439;-63
2023/12/08 12:44:03;;;;;;;40.78;17.63;;;;;;;;;;5045241;28;20041;-63
2023/12/08 12:46:29;;;;;;;36.67;15.13;;;;;;;;;;5014264;28;20036;-64
2023/12/08 12:48:55;;;;;;;47.10;16.70;;;;;;;;;;5013182;28;20093;-62
2023/12/08 12:51:34;;;;;;;38.13;15.48;;;;;;;;;;5014061;28;20033;-63
2023/12/08 12:54:00;;;;;;;42.78;18.55;;;;;;;;;;5013232;28;20492;-63
2023/12/08 12:56:26;;;;;;;40.08;16.30;;;;;;;;;;5014220;28;20027;-63
2023/12/08 12:59:09;;;;;;;36.63;15.63;;;;;;;;;;5031291;28;20084;-62
2023/12/08 13:01:35;;;;;;;91.53;34.83;;;;;;;;;;5033708;28;20034;-63
2023/12/08 13:04:03;;;;;;;39.03;15.75;;;;;;;;;;5032773;28;20037;-62
2023/12/08 13:06:30;;;;;;;40.47;16.23;;;;;;;;;;5032358;28;20053;-63
2023/12/08 13:08:56;;;;;;;39.10;17.70;;;;;;;;;;5015327;28;20477;-62
2023/12/08 13:11:23;;;;;;;43.63;16.73;;;;;;;;;;5013641;28;20485;-63
2023/12/08 13:13:48;;;;;;;41.63;14.50;;;;;;;;;;5013317;28;20080;-60
2023/12/08 13:16:14;;;;;;;40.17;16.05;;;;;;;;;;5013205;28;20042;-63
2023/12/08 13:18:44;;;;;;;41.08;15.63;;;;;;;;;;5013229;28;20062;-63
2023/12/08 13:21:10;;;;;;;38.00;16.60;;;;;;;;;;5027791;28;20630;-63
2023/12/08 13:23:35;;;;;;;40.22;17.23;;;;;;;;;;5013494;28;20037;-62
2023/12/08 13:26:01;;;;;;;38.78;17.35;;;;;;;;;;5023965;28;20037;-64
2023/12/08 13:28:26;;;;;;;29.85;12.40;;;;;;;;;;5033058;28;20025;-62
2023/12/08 13:30:52;;;;;;;36.85;15.60;;;;;;;;;;5032283;28;20033;-61
2023/12/08 13:33:17;;;;;;;35.15;15.93;;;;;;;;;;5033149;28;20484;-63
2023/12/08 13:35:42;;;;;;;34.67;15.73;;;;;;;;;;5032976;28;20037;-64
2023/12/08 13:38:08;;;;;;;36.92;15.52;;;;;;;;;;5030860;28;20057;-62
2023/12/08 13:40:33;;;;;;;35.25;13.55;;;;;;;;;;5031267;28;20506;-64
2023/12/08 13:42:58;;;;;;;43.30;16.20;;;;;;;;;;5026741;28;20038;-64
2023/12/08 13:45:25;;;;;;;40.63;15.98;;;;;;;;;;5013117;28;20037;-65
2023/12/08 13:47:50;;;;;;;38.53;14.32;;;;;;;;;;5012525;28;20082;-62
2023/12/08 13:50:16;;;;;;;34.20;15.48;;;;;;;;;;5012472;28;20472;-64
2023/12/08 13:52:41;;;;;;;36.47;15.55;;;;;;;;;;5012972;28;20030;-64
2023/12/08 13:55:07;;;;;;;36.13;15.68;;;;;;;;;;5011876;28;20037;-63
2023/12/08 13:57:32;;;;;;;43.80;18.33;;;;;;;;;;5012812;28;20116;-66
2023/12/08 13:59:58;;;;;;;40.65;18.73;;;;;;;;;;5011848;28;20026;-64
2023/12/08 14:02:24;;;;;;;33.67;15.52;;;;;;;;;;5027797;28;20026;-62
2023/12/08 14:04:50;;;;;;;41.33;16.38;;;;;;;;;;5012646;28;20487;-62
2023/12/08 14:07:15;;;;;;;43.28;17.55;;;;;;;;;;5012043;28;20068;-64
2023/12/08 14:09:41;;;;;;;41.17;19.50;;;;;;;;;;5014890;28;20029;-64
2023/12/08 14:12:06;;;;;;;36.67;16.52;;;;;;;;;;5024310;28;20488;-63
2023/12/08 14:14:32;;;;;;;39.33;18.88;;;;;;;;;;5012403;28;20088;-63
2023/12/08 14:16:57;;;;;;;36.05;14.90;;;;;;;;;;5011456;28;20030;-64
2023/12/08 14:19:22;;;;;;;39.67;15.77;;;;;;;;;;5010704;28;20049;-63